createdAt,value
2022-09-12T00:00:02.276Z,16.3
2022-09-12T00:01:03.864Z,16.3
2022-09-12T00:02:02.523Z,16.3
2022-09-12T00:03:02.585Z,16.2
2022-09-12T00:04:01.152Z,16.2
2022-09-12T00:05:01.762Z,16.2
2022-09-12T00:06:06.424Z,16.1
2022-09-12T00:07:01.899Z,16.2
2022-09-12T00:08:02.097Z,16.2
2022-09-12T00:09:00.466Z,16.2
2022-09-12T00:10:00.102Z,16.2
2022-09-12T00:11:07.411Z,16.2
2022-09-12T00:12:01.108Z,16.1
2022-09-12T00:13:01.120Z,16.1
2022-09-12T00:14:00.712Z,16.1
2022-09-12T00:15:00.308Z,16.1
2022-09-12T00:16:10.789Z,16.1
2022-09-12T00:17:01.038Z,16.1
2022-09-12T00:18:01.169Z,16.1
2022-09-12T00:19:00.738Z,16.1
2022-09-12T00:20:00.342Z,16.1
2022-09-12T00:21:14.378Z,16.1
2022-09-12T00:22:01.069Z,16.1
2022-09-12T00:23:01.098Z,16.1
2022-09-12T00:24:00.702Z,16.1
2022-09-12T00:25:00.273Z,16.1
2022-09-12T00:25:59.861Z,16.1
2022-09-12T00:26:59.454Z,16.1
2022-09-12T00:28:02.553Z,16.1
2022-09-12T00:29:01.113Z,16.1
2022-09-12T00:30:01.135Z,16.1
2022-09-12T00:31:01.130Z,16.1
2022-09-12T00:32:01.854Z,16.1
2022-09-12T00:33:02.106Z,16.1
2022-09-12T00:34:01.364Z,16.1
2022-09-12T00:35:01.060Z,16.1
2022-09-12T00:36:01.072Z,16
2022-09-12T00:37:01.076Z,16.1
2022-09-12T00:38:00.607Z,16
2022-09-12T00:39:00.277Z,16.1
2022-09-12T00:40:00.025Z,16.1
2022-09-12T00:41:00.424Z,16
2022-09-12T00:42:00.127Z,16
2022-09-12T00:42:59.763Z,16
2022-09-12T00:44:01.418Z,16
2022-09-12T00:45:02.048Z,16
2022-09-12T00:46:01.152Z,16
2022-09-12T00:47:01.257Z,16
2022-09-12T00:48:02.175Z,16
2022-09-12T00:49:00.812Z,16
2022-09-12T00:50:00.469Z,16
2022-09-12T00:51:00.030Z,16
2022-09-12T00:51:59.617Z,16
2022-09-12T00:53:01.738Z,16
2022-09-12T00:54:01.200Z,16
2022-09-12T00:55:01.028Z,16
2022-09-12T00:56:01.374Z,16
2022-09-12T00:57:02.150Z,16
2022-09-12T00:58:01.100Z,15.9
2022-09-12T00:59:00.761Z,15.9
2022-09-12T01:00:00.408Z,15.9
2022-09-12T01:01:00.103Z,15.9
2022-09-12T01:01:59.912Z,15.9
2022-09-12T01:02:59.702Z,15.9
2022-09-12T01:04:01.763Z,15.9
2022-09-12T01:05:01.412Z,15.9
2022-09-12T01:06:04.005Z,15.9
2022-09-12T01:07:01.155Z,15.9
2022-09-12T01:08:01.078Z,15.9
2022-09-12T01:09:00.672Z,15.9
2022-09-12T01:10:00.274Z,15.9
2022-09-12T01:10:59.962Z,15.9
2022-09-12T01:11:59.657Z,15.8
2022-09-12T01:13:02.204Z,15.8
2022-09-12T01:14:00.692Z,15.8
2022-09-12T01:15:00.397Z,15.8
2022-09-12T01:16:00.098Z,15.8
2022-09-12T01:16:59.806Z,15.8
2022-09-12T01:18:01.533Z,15.8
2022-09-12T01:19:00.622Z,15.8
2022-09-12T01:20:00.635Z,15.8
2022-09-12T01:21:00.331Z,15.8
2022-09-12T01:22:00.021Z,15.8
2022-09-12T01:22:59.726Z,15.8
2022-09-12T01:24:01.396Z,15.8
2022-09-12T01:25:01.086Z,15.8
2022-09-12T01:26:01.098Z,15.8
2022-09-12T01:27:01.124Z,15.8
2022-09-12T01:28:01.495Z,15.8
2022-09-12T01:29:00.787Z,15.8
2022-09-12T01:30:00.409Z,15.8
2022-09-12T01:30:59.974Z,15.8
2022-09-12T01:31:59.642Z,15.8
2022-09-12T01:33:01.230Z,15.8
2022-09-12T01:34:00.756Z,15.7
2022-09-12T01:35:00.363Z,15.7
2022-09-12T01:35:59.950Z,15.6
2022-09-12T01:36:59.995Z,15.6
2022-09-12T01:37:59.988Z,15.6
2022-09-12T01:38:59.619Z,15.6
2022-09-12T01:40:01.553Z,15.6
2022-09-12T01:41:02.133Z,15.6
2022-09-12T01:42:03.275Z,15.6
2022-09-12T01:43:01.102Z,15.6
2022-09-12T01:44:00.682Z,15.6
2022-09-12T01:45:00.276Z,15.6
2022-09-12T01:45:59.896Z,15.6
2022-09-12T01:47:04.879Z,15.6
2022-09-12T01:48:01.210Z,15.6
2022-09-12T01:49:00.774Z,15.6
2022-09-12T01:50:00.364Z,15.6
2022-09-12T01:51:00.005Z,15.6
2022-09-12T01:52:08.225Z,15.6
2022-09-12T01:53:01.072Z,15.6
2022-09-12T01:54:00.736Z,15.6
2022-09-12T01:55:00.361Z,15.6
2022-09-12T01:56:00.076Z,15.6
2022-09-12T01:57:10.161Z,15.6
2022-09-12T01:58:01.200Z,15.6
2022-09-12T01:59:00.729Z,15.6
2022-09-12T02:00:00.290Z,15.6
2022-09-12T02:00:59.917Z,15.6
2022-09-12T02:02:14.078Z,15.6
2022-09-12T02:03:01.126Z,15.6
2022-09-12T02:04:00.715Z,15.6
2022-09-12T02:05:00.940Z,15.6
2022-09-12T02:06:01.530Z,15.6
2022-09-12T02:07:16.778Z,15.6
2022-09-12T02:08:01.103Z,15.6
2022-09-12T02:09:00.764Z,15.6
2022-09-12T02:10:00.299Z,15.6
2022-09-12T02:10:59.939Z,15.6
2022-09-12T02:11:59.590Z,15.6
2022-09-12T02:13:01.257Z,15.6
2022-09-12T02:14:01.230Z,15.6
2022-09-12T02:15:01.487Z,15.6
2022-09-12T02:16:01.170Z,15.6
2022-09-12T02:17:01.221Z,15.6
2022-09-12T02:18:01.122Z,15.6
2022-09-12T02:19:00.686Z,15.6
2022-09-12T02:20:00.310Z,15.6
2022-09-12T02:20:59.912Z,15.6
2022-09-12T02:21:59.490Z,15.6
2022-09-12T02:23:02.084Z,15.6
2022-09-12T02:24:01.052Z,15.5
2022-09-12T02:25:01.075Z,15.5
2022-09-12T02:26:01.094Z,15.5
2022-09-12T02:27:01.082Z,15.5
2022-09-12T02:28:01.055Z,15.5
2022-09-12T02:29:00.902Z,15.5
2022-09-12T02:30:01.109Z,15.5
2022-09-12T02:31:01.109Z,15.5
2022-09-12T02:32:01.113Z,15.5
2022-09-12T02:33:01.130Z,15.5
2022-09-12T02:34:00.702Z,15.5
2022-09-12T02:35:00.299Z,15.5
2022-09-12T02:35:59.996Z,15.5
2022-09-12T02:36:59.702Z,15.5
2022-09-12T02:38:01.443Z,15.4
2022-09-12T02:39:00.997Z,15.5
2022-09-12T02:40:01.091Z,15.4
2022-09-12T02:41:01.077Z,15.4
2022-09-12T02:42:01.095Z,15.4
2022-09-12T02:43:01.079Z,15.4
2022-09-12T02:44:00.765Z,15.4
2022-09-12T02:45:00.375Z,15.4
2022-09-12T02:46:00.298Z,15.4
2022-09-12T02:47:00.206Z,15.4
2022-09-12T02:47:59.825Z,15.4
2022-09-12T02:49:02.836Z,15.4
2022-09-12T02:50:01.125Z,15.4
2022-09-12T02:51:01.126Z,15.4
2022-09-12T02:52:01.150Z,15.4
2022-09-12T02:53:01.041Z,15.4
2022-09-12T02:54:00.628Z,15.4
2022-09-12T02:55:00.241Z,15.4
2022-09-12T02:55:59.820Z,15.4
2022-09-12T02:57:01.448Z,15.4
2022-09-12T02:58:02.912Z,15.4
2022-09-12T02:59:01.082Z,15.4
2022-09-12T03:00:01.083Z,15.4
2022-09-12T03:01:01.508Z,15.4
2022-09-12T03:02:01.554Z,15.4
2022-09-12T03:03:01.098Z,15.4
2022-09-12T03:04:00.695Z,15.4
2022-09-12T03:05:00.296Z,15.5
2022-09-12T03:05:59.887Z,15.5
2022-09-12T03:06:59.479Z,15.5
2022-09-12T03:08:01.072Z,15.5
2022-09-12T03:09:00.844Z,15.5
2022-09-12T03:10:00.434Z,15.5
2022-09-12T03:11:00.020Z,15.4
2022-09-12T03:11:59.752Z,15.4
2022-09-12T03:13:01.741Z,15.4
2022-09-12T03:14:00.870Z,15.4
2022-09-12T03:15:01.099Z,15.5
2022-09-12T03:16:01.101Z,15.5
2022-09-12T03:17:01.028Z,15.5
2022-09-12T03:18:01.490Z,15.5
2022-09-12T03:19:00.800Z,15.5
2022-09-12T03:20:00.389Z,15.5
2022-09-12T03:21:00.019Z,15.5
2022-09-12T03:21:59.606Z,15.5
2022-09-12T03:23:01.173Z,15.5
2022-09-12T03:24:00.833Z,15.5
2022-09-12T03:25:00.723Z,15.5
2022-09-12T03:26:00.751Z,15.5
2022-09-12T03:27:00.380Z,15.5
2022-09-12T03:28:01.208Z,15.5
2022-09-12T03:29:00.758Z,15.5
2022-09-12T03:30:00.348Z,15.5
2022-09-12T03:30:59.968Z,15.4
2022-09-12T03:31:59.655Z,15.4
2022-09-12T03:33:04.971Z,15.5
2022-09-12T03:34:00.597Z,15.4
2022-09-12T03:35:00.347Z,15.4
2022-09-12T03:35:59.875Z,15.4
2022-09-12T03:37:01.426Z,15.4
2022-09-12T03:38:06.957Z,15.4
2022-09-12T03:39:01.028Z,15.4
2022-09-12T03:40:01.111Z,15.4
2022-09-12T03:41:01.048Z,15.4
2022-09-12T03:42:01.054Z,15.4
2022-09-12T03:43:09.610Z,15.4
2022-09-12T03:44:00.658Z,15.3
2022-09-12T03:45:00.243Z,15.3
2022-09-12T03:45:59.852Z,15.3
2022-09-12T03:47:01.565Z,15.3
2022-09-12T03:48:12.702Z,15.3
2022-09-12T03:49:01.201Z,15.3
2022-09-12T03:50:01.105Z,15.3
2022-09-12T03:51:01.115Z,15.4
2022-09-12T03:52:01.120Z,15.4
2022-09-12T03:53:17.388Z,15.4
2022-09-12T03:54:01.443Z,15.4
2022-09-12T03:55:02.037Z,15.4
2022-09-12T03:56:01.316Z,15.4
2022-09-12T03:57:01.074Z,15.4
2022-09-12T03:58:01.088Z,15.4
2022-09-12T03:59:00.646Z,15.4
2022-09-12T04:00:00.269Z,15.4
2022-09-12T04:01:00.489Z,15.4
2022-09-12T04:02:00.230Z,15.5
2022-09-12T04:03:00.005Z,15.5
2022-09-12T04:03:59.662Z,15.5
2022-09-12T04:05:01.301Z,15.5
2022-09-12T04:06:02.126Z,15.5
2022-09-12T04:07:01.124Z,15.5
2022-09-12T04:08:01.127Z,15.5
2022-09-12T04:09:00.716Z,15.5
2022-09-12T04:10:00.365Z,15.5
2022-09-12T04:11:00.013Z,15.5
2022-09-12T04:11:59.598Z,15.5
2022-09-12T04:13:02.264Z,15.5
2022-09-12T04:14:00.954Z,15.5
2022-09-12T04:15:01.071Z,15.5
2022-09-12T04:16:01.076Z,15.5
2022-09-12T04:17:01.092Z,15.5
2022-09-12T04:18:05.617Z,15.5
2022-09-12T04:19:00.738Z,15.5
2022-09-12T04:20:00.375Z,15.5
2022-09-12T04:21:00.042Z,15.5
2022-09-12T04:21:59.667Z,15.5
2022-09-12T04:23:01.312Z,15.5
2022-09-12T04:24:01.013Z,15.5
2022-09-12T04:25:01.446Z,15.5
2022-09-12T04:26:02.118Z,15.5
2022-09-12T04:27:07.185Z,15.5
2022-09-12T04:28:02.406Z,15.5
2022-09-12T04:29:01.694Z,15.5
2022-09-12T04:30:05.966Z,15.5
2022-09-12T04:31:01.757Z,15.5
2022-09-12T04:32:05.298Z,15.4
2022-09-12T04:33:07.981Z,15.4
2022-09-12T04:34:01.273Z,15.4
2022-09-12T04:35:01.107Z,15.4
2022-09-12T04:36:01.104Z,15.4
2022-09-12T04:37:01.113Z,15.4
2022-09-12T04:38:01.138Z,15.4
2022-09-12T04:39:00.796Z,15.4
2022-09-12T04:40:00.571Z,15.4
2022-09-12T04:41:00.412Z,15.4
2022-09-12T04:42:00.119Z,15.4
2022-09-12T04:42:59.724Z,15.4
2022-09-12T04:44:01.370Z,15.4
2022-09-12T04:45:00.947Z,15.4
2022-09-12T04:46:01.156Z,15.4
2022-09-12T04:47:01.086Z,15.4
2022-09-12T04:48:01.128Z,15.4
2022-09-12T04:49:00.773Z,15.4
2022-09-12T04:50:00.486Z,15.5
2022-09-12T04:51:00.182Z,15.5
2022-09-12T04:51:59.755Z,15.5
2022-09-12T04:53:01.325Z,15.5
2022-09-12T04:54:00.905Z,15.4
2022-09-12T04:55:00.610Z,15.5
2022-09-12T04:56:00.317Z,15.5
2022-09-12T04:57:00.003Z,15.5
2022-09-12T04:57:59.718Z,15.5
2022-09-12T04:59:01.354Z,15.5
2022-09-12T05:00:07.229Z,15.5
2022-09-12T05:01:01.471Z,15.5
2022-09-12T05:02:01.097Z,15.5
2022-09-12T05:03:01.037Z,15.5
2022-09-12T05:04:00.603Z,15.5
2022-09-12T05:05:00.221Z,15.5
2022-09-12T05:05:59.884Z,15.5
2022-09-12T05:06:59.403Z,15.5
2022-09-12T05:08:01.041Z,15.5
2022-09-12T05:09:00.629Z,15.5
2022-09-12T05:10:00.556Z,15.5
2022-09-12T05:11:00.179Z,15.5
2022-09-12T05:12:04.552Z,15.5
2022-09-12T05:13:01.271Z,15.5
2022-09-12T05:14:02.401Z,15.5
2022-09-12T05:15:01.998Z,15.5
2022-09-12T05:16:01.299Z,15.4
2022-09-12T05:17:01.114Z,15.4
2022-09-12T05:18:01.074Z,15.4
2022-09-12T05:19:04.138Z,15.4
2022-09-12T05:20:01.083Z,15.5
2022-09-12T05:21:01.094Z,15.4
2022-09-12T05:22:01.116Z,15.5
2022-09-12T05:23:01.512Z,15.4
2022-09-12T05:24:07.269Z,15.5
2022-09-12T05:25:01.121Z,15.4
2022-09-12T05:26:01.138Z,15.4
2022-09-12T05:27:01.126Z,15.4
2022-09-12T05:28:01.132Z,15.4
2022-09-12T05:29:09.251Z,15.4
2022-09-12T05:30:01.044Z,15.3
2022-09-12T05:31:00.810Z,15.3
2022-09-12T05:32:01.442Z,15.3
2022-09-12T05:33:01.061Z,15.3
2022-09-12T05:34:13.096Z,15.3
2022-09-12T05:35:01.086Z,15.3
2022-09-12T05:36:01.083Z,15.3
2022-09-12T05:37:01.328Z,15.3
2022-09-12T05:38:01.103Z,15.3
2022-09-12T05:39:15.063Z,15.3
2022-09-12T05:40:01.486Z,15.4
2022-09-12T05:41:01.733Z,15.4
2022-09-12T05:42:02.063Z,15.4
2022-09-12T05:43:01.528Z,15.4
2022-09-12T05:44:00.733Z,15.4
2022-09-12T05:45:00.320Z,15.4
2022-09-12T05:46:00.009Z,15.5
2022-09-12T05:46:59.710Z,15.5
2022-09-12T05:48:01.771Z,15.5
2022-09-12T05:49:02.144Z,15.5
2022-09-12T05:50:01.106Z,15.5
2022-09-12T05:51:01.079Z,15.5
2022-09-12T05:52:01.491Z,15.5
2022-09-12T05:53:01.209Z,15.5
2022-09-12T05:54:00.796Z,15.5
2022-09-12T05:55:00.833Z,15.6
2022-09-12T05:56:00.406Z,15.6
2022-09-12T05:57:00.143Z,15.6
2022-09-12T05:58:00.058Z,15.6
2022-09-12T05:59:00.073Z,15.6
2022-09-12T05:59:59.745Z,15.6
2022-09-12T06:01:01.619Z,15.6
2022-09-12T06:02:03.871Z,15.6
2022-09-12T06:03:01.067Z,15.6
2022-09-12T06:04:00.551Z,15.6
2022-09-12T06:05:00.297Z,15.7
2022-09-12T06:05:59.832Z,15.7
2022-09-12T06:07:02.508Z,15.7
2022-09-12T06:08:01.398Z,15.7
2022-09-12T06:09:00.977Z,15.7
2022-09-12T06:10:01.110Z,15.7
2022-09-12T06:11:02.409Z,15.7
2022-09-12T06:12:01.548Z,15.7
2022-09-12T06:13:01.226Z,15.7
2022-09-12T06:14:01.973Z,15.7
2022-09-12T06:15:01.314Z,15.7
2022-09-12T06:16:01.417Z,15.7
2022-09-12T06:17:01.216Z,15.7
2022-09-12T06:18:08.009Z,15.7
2022-09-12T06:19:00.963Z,15.7
2022-09-12T06:20:00.663Z,15.7
2022-09-12T06:21:00.269Z,15.7
2022-09-12T06:21:59.850Z,15.8
2022-09-12T06:23:01.675Z,15.8
2022-09-12T06:24:01.346Z,15.8
2022-09-12T06:25:01.120Z,15.8
2022-09-12T06:26:01.494Z,15.8
2022-09-12T06:27:01.432Z,15.8
2022-09-12T06:28:01.149Z,15.8
2022-09-12T06:29:00.940Z,15.8
2022-09-12T06:30:00.711Z,15.8
2022-09-12T06:31:00.623Z,15.9
2022-09-12T06:32:00.267Z,15.9
2022-09-12T06:32:59.981Z,15.9
2022-09-12T06:33:59.838Z,16
2022-09-12T06:35:02.225Z,16
2022-09-12T06:36:01.461Z,16
2022-09-12T06:37:01.297Z,16
2022-09-12T06:38:01.746Z,16
2022-09-12T06:39:00.910Z,16
2022-09-12T06:40:02.038Z,16
2022-09-12T06:41:01.104Z,16
2022-09-12T06:42:01.764Z,16
2022-09-12T06:43:01.108Z,16
2022-09-12T06:44:00.679Z,16
2022-09-12T06:45:00.733Z,16
2022-09-12T06:46:00.498Z,15.9
2022-09-12T06:47:00.118Z,16
2022-09-12T06:47:59.705Z,16
2022-09-12T06:49:01.350Z,16
2022-09-12T06:50:01.936Z,16
2022-09-12T06:51:01.059Z,16
2022-09-12T06:52:01.190Z,16
2022-09-12T06:53:01.387Z,16.1
2022-09-12T06:54:01.154Z,16.1
2022-09-12T06:55:01.071Z,16.1
2022-09-12T06:56:01.203Z,16.1
2022-09-12T06:57:01.907Z,16.1
2022-09-12T06:58:01.403Z,16.1
2022-09-12T06:59:00.479Z,16.1
2022-09-12T07:00:04.562Z,16.1
2022-09-12T07:01:01.214Z,16.1
2022-09-12T07:02:01.214Z,16.1
2022-09-12T07:03:01.928Z,16.2
2022-09-12T07:04:01.062Z,16.1
2022-09-12T07:05:08.020Z,16.1
2022-09-12T07:06:02.241Z,16.2
2022-09-12T07:07:01.072Z,16.2
2022-09-12T07:08:01.404Z,16.2
2022-09-12T07:09:00.705Z,16.2
2022-09-12T07:10:09.254Z,16.2
2022-09-12T07:11:01.813Z,16.2
2022-09-12T07:12:01.105Z,16.2
2022-09-12T07:13:01.495Z,16.2
2022-09-12T07:14:01.216Z,16.2
2022-09-12T07:15:12.863Z,16.3
2022-09-12T07:16:01.413Z,16.3
2022-09-12T07:17:01.247Z,16.3
2022-09-12T07:18:01.139Z,16.4
2022-09-12T07:19:01.059Z,16.5
2022-09-12T07:20:15.186Z,16.5
2022-09-12T07:21:01.926Z,16.5
2022-09-12T07:22:01.218Z,16.5
2022-09-12T07:23:01.089Z,16.6
2022-09-12T07:24:01.099Z,16.6
2022-09-12T07:25:02.453Z,16.6
2022-09-12T07:26:01.466Z,16.6
2022-09-12T07:27:01.298Z,16.7
2022-09-12T07:28:01.195Z,16.8
2022-09-12T07:29:25.086Z,16.8
2022-09-12T07:30:01.123Z,16.8
2022-09-12T07:31:01.052Z,16.8
2022-09-12T07:32:01.149Z,16.8
2022-09-12T07:33:01.140Z,16.8
2022-09-12T07:34:01.052Z,16.9
2022-09-12T07:35:01.193Z,17
2022-09-12T07:36:01.384Z,17
2022-09-12T07:37:01.768Z,17.1
2022-09-12T07:38:01.054Z,17.1
2022-09-12T07:39:01.500Z,17.2
2022-09-12T07:40:01.054Z,17.3
2022-09-12T07:41:01.088Z,17.4
2022-09-12T07:42:01.179Z,17.4
2022-09-12T07:43:01.115Z,17.5
2022-09-12T07:44:00.814Z,17.4
2022-09-12T07:45:00.612Z,17.4
2022-09-12T07:46:00.278Z,17.3
2022-09-12T07:47:00.394Z,17.3
2022-09-12T07:48:00.481Z,17.4
2022-09-12T07:49:00.146Z,17.3
2022-09-12T07:49:59.901Z,17.3
2022-09-12T07:50:59.634Z,17.3
2022-09-12T07:52:01.796Z,17.3
2022-09-12T07:53:02.296Z,17.3
2022-09-12T07:54:00.963Z,17.3
2022-09-12T07:55:01.482Z,17.2
2022-09-12T07:56:00.672Z,17.2
2022-09-12T07:57:00.693Z,17.2
2022-09-12T07:58:00.403Z,17.1
2022-09-12T07:59:00.091Z,17.1
2022-09-12T07:59:59.777Z,17.1
2022-09-12T08:01:01.602Z,17.1
2022-09-12T08:02:01.195Z,17.1
2022-09-12T08:03:01.919Z,17.1
2022-09-12T08:04:01.160Z,17.1
2022-09-12T08:05:01.141Z,17.1
2022-09-12T08:06:01.552Z,17.1
2022-09-12T08:07:01.155Z,17.1
2022-09-12T08:08:01.972Z,17.1
2022-09-12T08:09:01.450Z,17.1
2022-09-12T08:10:01.771Z,17
2022-09-12T08:11:01.193Z,17
2022-09-12T08:12:01.105Z,16.9
2022-09-12T08:13:01.419Z,16.8
2022-09-12T08:14:01.046Z,16.8
2022-09-12T08:15:01.030Z,16.8
2022-09-12T08:16:01.469Z,16.7
2022-09-12T08:17:01.344Z,16.7
2022-09-12T08:18:02.553Z,16.6
2022-09-12T08:19:02.059Z,16.7
2022-09-12T08:20:01.217Z,16.6
2022-09-12T08:21:01.041Z,16.7
2022-09-12T08:22:01.049Z,16.6
2022-09-12T08:23:01.050Z,16.6
2022-09-12T08:24:01.053Z,16.6
2022-09-12T08:25:01.086Z,16.6
2022-09-12T08:26:05.754Z,16.6
2022-09-12T08:27:02.758Z,16.6
2022-09-12T08:28:01.089Z,16.6
2022-09-12T08:29:01.106Z,16.6
2022-09-12T08:30:01.112Z,16.6
2022-09-12T08:31:00.931Z,16.6
2022-09-12T08:32:01.320Z,16.6
2022-09-12T08:33:01.206Z,16.6
2022-09-12T08:34:01.232Z,16.6
2022-09-12T08:35:01.608Z,16.6
2022-09-12T08:36:02.781Z,16.6
2022-09-12T08:37:01.143Z,16.7
2022-09-12T08:38:01.741Z,16.8
2022-09-12T08:39:01.162Z,16.8
2022-09-12T08:40:00.921Z,16.8
2022-09-12T08:41:06.363Z,16.8
2022-09-12T08:42:01.572Z,16.8
2022-09-12T08:43:02.093Z,16.8
2022-09-12T08:44:01.494Z,16.8
2022-09-12T08:45:01.205Z,16.7
2022-09-12T08:46:07.856Z,16.7
2022-09-12T08:47:01.125Z,16.6
2022-09-12T08:48:01.147Z,16.7
2022-09-12T08:49:01.141Z,16.7
2022-09-12T08:50:01.140Z,16.6
2022-09-12T08:51:09.386Z,16.6
2022-09-12T08:52:01.274Z,16.6
2022-09-12T08:53:02.067Z,16.6
2022-09-12T08:54:01.414Z,16.7
2022-09-12T08:55:01.444Z,16.7
2022-09-12T08:56:12.691Z,16.8
2022-09-12T08:57:01.078Z,16.8
2022-09-12T08:58:01.025Z,16.8
2022-09-12T08:59:01.098Z,16.8
2022-09-12T09:00:01.125Z,16.8
2022-09-12T09:01:15.927Z,16.8
2022-09-12T09:02:01.533Z,16.8
2022-09-12T09:03:01.513Z,16.8
2022-09-12T09:04:01.402Z,16.9
2022-09-12T09:05:01.126Z,16.8
2022-09-12T09:06:01.139Z,16.8
2022-09-12T09:07:01.146Z,16.8
2022-09-12T09:08:01.045Z,16.8
2022-09-12T09:09:01.086Z,16.8
2022-09-12T09:10:01.110Z,16.8
2022-09-12T09:11:01.133Z,16.7
2022-09-12T09:12:01.123Z,16.7
2022-09-12T09:13:00.775Z,16.6
2022-09-12T09:14:04.456Z,16.6
2022-09-12T09:15:01.465Z,16.6
2022-09-12T09:16:02.110Z,16.7
2022-09-12T09:17:01.101Z,16.7
2022-09-12T09:18:00.728Z,16.8
2022-09-12T09:19:00.358Z,16.8
2022-09-12T09:19:59.980Z,16.8
2022-09-12T09:20:59.633Z,16.7
2022-09-12T09:22:01.448Z,16.8
2022-09-12T09:23:02.006Z,16.8
2022-09-12T09:24:01.092Z,16.8
2022-09-12T09:25:01.057Z,16.8
2022-09-12T09:26:01.076Z,16.8
2022-09-12T09:27:01.068Z,16.8
2022-09-12T09:28:01.068Z,16.8
2022-09-12T09:29:01.119Z,16.8
2022-09-12T09:30:01.040Z,16.8
2022-09-12T09:31:00.766Z,16.9
2022-09-12T09:32:00.380Z,16.9
2022-09-12T09:32:59.969Z,16.9
2022-09-12T09:33:59.584Z,17
2022-09-12T09:35:01.177Z,17
2022-09-12T09:36:00.793Z,17
2022-09-12T09:37:00.410Z,17
2022-09-12T09:37:59.999Z,17
2022-09-12T09:38:59.606Z,17.1
2022-09-12T09:40:01.329Z,17.1
2022-09-12T09:41:01.961Z,17.1
2022-09-12T09:42:01.148Z,17.2
2022-09-12T09:43:01.456Z,17.2
2022-09-12T09:44:01.171Z,17.3
2022-09-12T09:45:01.100Z,17.3
2022-09-12T09:46:01.133Z,17.3
2022-09-12T09:47:01.101Z,17.3
2022-09-12T09:48:01.101Z,17.3
2022-09-12T09:49:02.580Z,17.3
2022-09-12T09:50:02.098Z,17.3
2022-09-12T09:51:01.527Z,17.3
2022-09-12T09:52:03.052Z,17.3
2022-09-12T09:53:01.132Z,17.3
2022-09-12T09:54:01.164Z,17.2
2022-09-12T09:55:01.053Z,17.2
2022-09-12T09:56:01.062Z,17.1
2022-09-12T09:57:01.207Z,17.1
2022-09-12T09:58:01.456Z,17.1
2022-09-12T09:59:01.087Z,17.1
2022-09-12T10:00:01.080Z,17.1
2022-09-12T10:01:01.247Z,17.2
2022-09-12T10:02:01.093Z,17.2
2022-09-12T10:03:01.227Z,17.3
2022-09-12T10:04:01.117Z,17.3
2022-09-12T10:05:01.121Z,17.3
2022-09-12T10:06:01.211Z,17.4
2022-09-12T10:07:01.424Z,17.4
2022-09-12T10:08:01.033Z,17.5
2022-09-12T10:09:01.067Z,17.5
2022-09-12T10:10:01.047Z,17.5
2022-09-12T10:11:01.050Z,17.5
2022-09-12T10:12:01.760Z,17.5
2022-09-12T10:13:01.069Z,17.5
2022-09-12T10:14:01.122Z,17.5
2022-09-12T10:15:01.118Z,17.5
2022-09-12T10:16:00.799Z,17.5
2022-09-12T10:17:01.096Z,17.5
2022-09-12T10:18:01.089Z,17.6
2022-09-12T10:19:01.119Z,17.6
2022-09-12T10:20:22.253Z,17.6
2022-09-12T10:21:01.135Z,17.7
2022-09-12T10:22:01.130Z,17.7
2022-09-12T10:23:01.467Z,17.8
2022-09-12T10:24:01.646Z,17.8
2022-09-12T10:25:01.758Z,17.8
2022-09-12T10:26:02.056Z,17.8
2022-09-12T10:27:04.105Z,17.8
2022-09-12T10:28:01.183Z,17.8
2022-09-12T10:29:01.073Z,17.8
2022-09-12T10:30:01.578Z,17.9
2022-09-12T10:31:00.916Z,17.9
2022-09-12T10:32:08.184Z,17.9
2022-09-12T10:33:01.057Z,17.9
2022-09-12T10:34:01.112Z,17.9
2022-09-12T10:35:01.030Z,17.9
2022-09-12T10:36:01.176Z,17.9
2022-09-12T10:37:09.969Z,17.9
2022-09-12T10:38:01.121Z,17.8
2022-09-12T10:39:01.533Z,17.8
2022-09-12T10:40:01.086Z,17.8
2022-09-12T10:41:01.160Z,17.8
2022-09-12T10:42:13.997Z,17.8
2022-09-12T10:43:01.061Z,17.8
2022-09-12T10:44:01.072Z,17.9
2022-09-12T10:45:01.044Z,18
2022-09-12T10:46:01.084Z,18
2022-09-12T10:47:15.979Z,18
2022-09-12T10:48:05.473Z,18.1
2022-09-12T10:49:01.181Z,18.1
2022-09-12T10:50:01.130Z,18.1
2022-09-12T10:51:01.122Z,18.1
2022-09-12T10:52:01.112Z,18.2
2022-09-12T10:53:01.762Z,18.1
2022-09-12T10:54:01.528Z,18.2
2022-09-12T10:55:01.148Z,18.2
2022-09-12T10:56:01.151Z,18.3
2022-09-12T10:57:01.044Z,18.3
2022-09-12T10:58:01.155Z,18.3
2022-09-12T10:59:01.062Z,18.3
2022-09-12T11:00:01.079Z,18.3
2022-09-12T11:01:01.408Z,18.4
2022-09-12T11:02:01.487Z,18.4
2022-09-12T11:03:01.111Z,18.4
2022-09-12T11:04:01.110Z,18.5
2022-09-12T11:05:01.105Z,18.5
2022-09-12T11:06:01.114Z,18.5
2022-09-12T11:07:01.117Z,18.6
2022-09-12T11:08:01.434Z,18.6
2022-09-12T11:09:01.122Z,18.6
2022-09-12T11:10:01.054Z,18.6
2022-09-12T11:11:01.161Z,18.6
2022-09-12T11:12:01.048Z,18.7
2022-09-12T11:13:01.055Z,18.7
2022-09-12T11:14:01.083Z,18.7
2022-09-12T11:15:01.522Z,18.7
2022-09-12T11:16:00.837Z,18.8
2022-09-12T11:17:00.552Z,18.8
2022-09-12T11:18:00.282Z,18.8
2022-09-12T11:19:00.076Z,18.8
2022-09-12T11:19:59.755Z,18.9
2022-09-12T11:21:02.189Z,18.9
2022-09-12T11:22:01.109Z,18.9
2022-09-12T11:23:01.146Z,19
2022-09-12T11:24:01.144Z,19
2022-09-12T11:25:01.048Z,19
2022-09-12T11:26:01.338Z,19
2022-09-12T11:27:01.141Z,19
2022-09-12T11:28:01.120Z,19
2022-09-12T11:29:01.045Z,19
2022-09-12T11:30:01.078Z,19
2022-09-12T11:31:01.202Z,19.1
2022-09-12T11:32:01.872Z,19.1
2022-09-12T11:33:01.759Z,19.1
2022-09-12T11:34:01.905Z,19.1
2022-09-12T11:35:01.399Z,19.1
2022-09-12T11:36:01.101Z,19.2
2022-09-12T11:37:00.689Z,19.2
2022-09-12T11:38:00.285Z,19.2
2022-09-12T11:38:59.974Z,19.3
2022-09-12T11:39:59.590Z,19.3
2022-09-12T11:41:01.705Z,19.3
2022-09-12T11:42:01.138Z,19.3
2022-09-12T11:43:00.840Z,19.3
2022-09-12T11:44:00.543Z,19.4
2022-09-12T11:45:00.221Z,19.4
2022-09-12T11:45:59.933Z,19.4
2022-09-12T11:46:59.530Z,19.5
2022-09-12T11:48:02.404Z,19.5
2022-09-12T11:49:01.480Z,19.5
2022-09-12T11:50:01.191Z,19.5
2022-09-12T11:51:01.094Z,19.5
2022-09-12T11:52:01.099Z,19.6
2022-09-12T11:53:01.108Z,19.6
2022-09-12T11:54:01.122Z,19.6
2022-09-12T11:55:01.144Z,19.6
2022-09-12T11:56:01.148Z,19.7
2022-09-12T11:57:00.812Z,19.7
2022-09-12T11:58:00.521Z,19.7
2022-09-12T11:59:00.116Z,19.8
2022-09-12T11:59:59.702Z,19.8
2022-09-12T12:01:01.731Z,19.8
2022-09-12T12:02:02.477Z,19.8
2022-09-12T12:03:01.065Z,19.7
2022-09-12T12:04:01.225Z,19.7
2022-09-12T12:05:01.148Z,19.7
2022-09-12T12:06:00.792Z,19.8
2022-09-12T12:07:00.371Z,19.8
2022-09-12T12:08:02.694Z,19.8
2022-09-12T12:09:02.679Z,19.8
2022-09-12T12:10:01.130Z,19.8
2022-09-12T12:11:01.124Z,19.8
2022-09-12T12:12:01.130Z,19.8
2022-09-12T12:13:09.624Z,19.8
2022-09-12T12:14:02.118Z,19.8
2022-09-12T12:15:01.055Z,19.8
2022-09-12T12:16:01.104Z,19.8
2022-09-12T12:17:00.846Z,19.9
2022-09-12T12:18:08.882Z,20
2022-09-12T12:19:01.091Z,20
2022-09-12T12:20:06.459Z,20
2022-09-12T12:21:01.093Z,20.1
2022-09-12T12:22:01.035Z,20.1
2022-09-12T12:23:11.223Z,20.1
2022-09-12T12:24:01.271Z,20.2
2022-09-12T12:25:02.081Z,20.2
2022-09-12T12:26:01.627Z,20.1
2022-09-12T12:27:02.507Z,20.1
2022-09-12T12:28:13.812Z,20.1
2022-09-12T12:29:01.146Z,20.1
2022-09-12T12:30:01.053Z,20.1
2022-09-12T12:31:01.123Z,20.2
2022-09-12T12:32:01.056Z,20.2
2022-09-12T12:33:16.485Z,20.3
2022-09-12T12:34:02.183Z,20.3
2022-09-12T12:35:02.901Z,20.3
2022-09-12T12:36:01.033Z,20.3
2022-09-12T12:37:07.183Z,20.4
2022-09-12T12:38:01.108Z,20.4
2022-09-12T12:39:01.120Z,20.5
2022-09-12T12:40:01.483Z,20.5
2022-09-12T12:41:01.056Z,20.5
2022-09-12T12:42:01.441Z,20.6
2022-09-12T12:43:01.572Z,20.6
2022-09-12T12:44:03.100Z,20.6
2022-09-12T12:45:01.744Z,20.5
2022-09-12T12:46:02.158Z,20.5
2022-09-12T12:47:01.857Z,20.5
2022-09-12T12:48:05.075Z,20.5
2022-09-12T12:49:01.743Z,20.5
2022-09-12T12:50:02.098Z,20.6
2022-09-12T12:51:01.313Z,20.6
2022-09-12T12:52:01.994Z,20.6
2022-09-12T12:53:01.208Z,20.6
2022-09-12T12:54:01.098Z,20.6
2022-09-12T12:55:01.104Z,20.6
2022-09-12T12:56:01.142Z,20.6
2022-09-12T12:57:00.813Z,20.6
2022-09-12T12:58:00.426Z,20.7
2022-09-12T12:58:59.992Z,20.7
2022-09-12T12:59:59.652Z,20.7
2022-09-12T13:01:01.968Z,20.7
2022-09-12T13:02:01.097Z,20.8
2022-09-12T13:03:01.065Z,20.8
2022-09-12T13:04:01.073Z,20.7
2022-09-12T13:05:01.076Z,20.7
2022-09-12T13:06:01.183Z,20.8
2022-09-12T13:07:05.814Z,20.7
2022-09-12T13:08:01.109Z,20.8
2022-09-12T13:09:01.096Z,20.7
2022-09-12T13:10:01.124Z,20.8
2022-09-12T13:11:01.127Z,20.8
2022-09-12T13:12:01.135Z,20.8
2022-09-12T13:13:01.176Z,20.8
2022-09-12T13:14:01.139Z,20.7
2022-09-12T13:15:01.127Z,20.7
2022-09-12T13:16:01.204Z,20.7
2022-09-12T13:17:01.575Z,20.7
2022-09-12T13:18:01.980Z,20.7
2022-09-12T13:19:01.731Z,20.6
2022-09-12T13:20:26.175Z,20.7
2022-09-12T13:21:01.426Z,20.7
2022-09-12T13:22:02.192Z,20.7